Time;durP1;ratioP1;P1;durP2;ratioP2;P2;SDS_P1;SDS_P2;PMS_P1;PMS_P2;Temp;Humidity;BMP_temperature;BMP_pressure;BME280_temperature;BME280_humidity;BME280_pressure;Samples;Min_cycle;Max_cycle;Signal;HPM_P1;HPM_P2
2021/06/17 00:01:55;;;;;;;5.90;3.35;;;;;;;;;;5066083;28;20028;-41
2021/06/17 00:04:20;;;;;;;6.78;3.00;;;;;;;;;;5066354;28;20104;-43
2021/06/17 00:06:46;;;;;;;6.40;3.47;;;;;;;;;;5065537;28;20020;-43
2021/06/17 00:09:11;;;;;;;5.07;3.08;;;;;;;;;;5065579;28;20407;-43
2021/06/17 00:11:36;;;;;;;4.70;2.92;;;;;;;;;;5064384;28;20048;-42
2021/06/17 00:14:02;;;;;;;5.53;3.17;;;;;;;;;;5066802;28;20027;-45
2021/06/17 00:16:28;;;;;;;4.18;2.92;;;;;;;;;;5085249;28;20020;-42
2021/06/17 00:18:53;;;;;;;5.30;3.45;;;;;;;;;;5081956;28;20417;-43
2021/06/17 00:21:19;;;;;;;7.70;3.10;;;;;;;;;;5066223;28;20177;-42
2021/06/17 00:23:44;;;;;;;4.90;3.20;;;;;;;;;;5065713;28;20051;-44
2021/06/17 00:26:09;;;;;;;6.95;3.30;;;;;;;;;;5065256;28;20044;-43
2021/06/17 00:28:35;;;;;;;5.45;3.47;;;;;;;;;;5064338;28;20021;-42
2021/06/17 00:31:00;;;;;;;5.60;2.88;;;;;;;;;;5066405;28;20020;-42
2021/06/17 00:33:26;;;;;;;5.25;3.13;;;;;;;;;;5066405;28;20032;-47
2021/06/17 00:35:51;;;;;;;7.05;3.25;;;;;;;;;;5065909;28;20497;-45
2021/06/17 00:38:16;;;;;;;6.68;3.38;;;;;;;;;;5076623;28;20033;-47
2021/06/17 00:40:42;;;;;;;5.80;3.65;;;;;;;;;;5069039;28;20020;-46
2021/06/17 00:43:08;;;;;;;7.18;3.10;;;;;;;;;;5084664;28;20107;-45
2021/06/17 00:45:44;;;;;;;4.82;3.10;;;;;;;;;;5070593;28;20405;-44
2021/06/17 00:48:10;;;;;;;6.53;3.15;;;;;;;;;;5066765;28;20234;-46
2021/06/17 00:50:41;;;;;;;5.20;3.33;;;;;;;;;;5067900;28;20029;-43
2021/06/17 00:53:10;;;;;;;6.45;3.33;;;;;;;;;;5064334;28;20021;-41
2021/06/17 00:55:38;;;;;;;4.55;2.92;;;;;;;;;;5066107;28;20021;-43
2021/06/17 00:58:04;;;;;;;5.10;3.10;;;;;;;;;;5084501;28;20024;-41
2021/06/17 01:00:29;;;;;;;5.63;3.38;;;;;;;;;;5079941;28;20189;-46
2021/06/17 01:02:55;;;;;;;5.40;3.33;;;;;;;;;;5085892;28;20699;-43
2021/06/17 01:05:20;;;;;;;7.40;3.55;;;;;;;;;;5085018;28;20107;-41
2021/06/17 01:07:48;;;;;;;5.97;3.50;;;;;;;;;;5084965;28;20016;-42
2021/06/17 01:10:17;;;;;;;6.05;3.38;;;;;;;;;;5083272;28;20020;-47
2021/06/17 01:13:02;;;;;;;6.97;3.88;;;;;;;;;;5089121;28;20457;-43
2021/06/17 01:15:27;;;;;;;5.55;3.70;;;;;;;;;;5081629;28;20047;-44
2021/06/17 01:18:05;;;;;;;7.38;3.00;;;;;;;;;;5087499;28;20099;-43
2021/06/17 01:20:34;;;;;;;4.97;3.10;;;;;;;;;;5082702;28;20450;-46
2021/06/17 01:23:08;;;;;;;5.88;3.15;;;;;;;;;;5071719;28;20032;-46
2021/06/17 01:26:11;;;;;;;5.25;3.10;;;;;;;;;;5087817;28;20022;-43
2021/06/17 01:28:37;;;;;;;5.97;3.30;;;;;;;;;;5088403;28;20387;-43
2021/06/17 01:31:10;;;;;;;4.82;3.13;;;;;;;;;;5088266;28;20035;-41
2021/06/17 01:33:37;;;;;;;8.00;3.72;;;;;;;;;;5087925;28;20101;-43
2021/06/17 01:36:06;;;;;;;5.57;3.20;;;;;;;;;;5088878;28;20015;-47
2021/06/17 01:38:32;;;;;;;6.72;3.70;;;;;;;;;;5087576;28;20024;-42
2021/06/17 01:40:57;;;;;;;6.45;3.30;;;;;;;;;;5089115;28;20073;-45
2021/06/17 01:43:24;;;;;;;4.40;3.17;;;;;;;;;;5086082;28;20123;-42
2021/06/17 01:45:49;;;;;;;8.00;3.53;;;;;;;;;;5071083;28;20024;-43
2021/06/17 01:48:15;;;;;;;6.38;3.42;;;;;;;;;;5066363;28;20117;-47
2021/06/17 01:50:42;;;;;;;6.25;3.05;;;;;;;;;;5067580;28;20028;-44
2021/06/17 01:53:08;;;;;;;6.32;3.70;;;;;;;;;;5072042;28;20563;-43
2021/06/17 01:55:35;;;;;;;6.65;3.97;;;;;;;;;;5065693;28;20029;-41
2021/06/17 01:58:02;;;;;;;9.40;3.60;;;;;;;;;;5049725;28;20044;-43
2021/06/17 02:00:27;;;;;;;5.97;3.47;;;;;;;;;;5067735;28;20020;-44
2021/06/17 02:02:52;;;;;;;6.65;3.70;;;;;;;;;;5066245;28;20419;-43
2021/06/17 02:05:18;;;;;;;4.95;3.88;;;;;;;;;;5049516;28;20071;-41
2021/06/17 02:07:43;;;;;;;5.18;3.45;;;;;;;;;;5048618;28;20104;-49
2021/06/17 02:10:09;;;;;;;5.65;3.15;;;;;;;;;;5067540;28;20108;-44
2021/06/17 02:12:34;;;;;;;6.47;3.53;;;;;;;;;;5066146;28;20032;-45
2021/06/17 02:15:00;;;;;;;9.35;3.72;;;;;;;;;;5078725;28;20141;-45
2021/06/17 02:17:25;;;;;;;10.55;3.72;;;;;;;;;;5069814;28;20103;-43
2021/06/17 02:19:51;;;;;;;6.78;3.70;;;;;;;;;;5056961;28;20060;-42
2021/06/17 02:22:16;;;;;;;6.88;3.10;;;;;;;;;;5067135;28;20027;-44
2021/06/17 02:24:45;;;;;;;8.27;4.00;;;;;;;;;;5052420;28;20449;-47
2021/06/17 02:27:15;;;;;;;5.35;3.38;;;;;;;;;;5086711;28;20020;-42
2021/06/17 02:29:44;;;;;;;5.80;3.40;;;;;;;;;;5069497;28;20024;-42
2021/06/17 02:32:09;;;;;;;5.35;3.30;;;;;;;;;;5086411;28;20851;-45
2021/06/17 02:34:35;;;;;;;5.97;3.65;;;;;;;;;;5088095;28;20116;-44
2021/06/17 02:37:00;;;;;;;6.15;3.45;;;;;;;;;;5085144;28;20091;-43
2021/06/17 02:39:27;;;;;;;4.82;3.75;;;;;;;;;;5066846;28;20039;-41
2021/06/17 02:41:54;;;;;;;5.40;3.50;;;;;;;;;;5082333;28;20425;-43
2021/06/17 02:44:22;;;;;;;5.32;3.20;;;;;;;;;;5083415;28;20025;-44
2021/06/17 02:46:47;;;;;;;7.47;3.45;;;;;;;;;;5048296;28;20027;-43
2021/06/17 02:49:13;;;;;;;5.65;3.92;;;;;;;;;;5065418;28;20092;-43
2021/06/17 02:51:38;;;;;;;6.43;4.22;;;;;;;;;;5067561;28;20027;-42
2021/06/17 02:54:04;;;;;;;7.68;4.00;;;;;;;;;;5064953;28;20078;-43
2021/06/17 02:57:02;;;;;;;5.88;3.60;;;;;;;;;;5065715;28;20099;-47
2021/06/17 03:00:06;;;;;;;6.00;3.15;;;;;;;;;;5051627;28;20038;-48
2021/06/17 03:02:49;;;;;;;4.30;3.17;;;;;;;;;;5068018;28;20024;-42
2021/06/17 03:05:28;;;;;;;5.28;3.35;;;;;;;;;;5049848;28;20716;-44
2021/06/17 03:07:58;;;;;;;7.13;3.60;;;;;;;;;;5061813;28;20032;-46
2021/06/17 03:10:24;;;;;;;5.55;3.10;;;;;;;;;;5063494;28;20073;-45
2021/06/17 03:12:50;;;;;;;4.70;3.00;;;;;;;;;;5047869;28;20428;-43
2021/06/17 03:15:15;;;;;;;4.53;3.28;;;;;;;;;;5075989;28;20035;-47
2021/06/17 03:17:42;;;;;;;5.88;3.40;;;;;;;;;;5082046;28;20044;-46
2021/06/17 03:20:08;;;;;;;8.73;3.28;;;;;;;;;;5063007;28;20112;-46
2021/06/17 03:22:33;;;;;;;5.82;3.22;;;;;;;;;;5035893;28;20028;-45
2021/06/17 03:25:06;;;;;;;5.57;3.88;;;;;;;;;;5048429;28;20023;-45
2021/06/17 03:27:31;;;;;;;5.63;3.53;;;;;;;;;;5072347;28;20025;-44
2021/06/17 03:29:56;;;;;;;9.10;3.72;;;;;;;;;;5072910;28;20429;-45
2021/06/17 03:32:22;;;;;;;7.10;3.80;;;;;;;;;;5065368;28;20038;-44
2021/06/17 03:34:48;;;;;;;4.88;3.70;;;;;;;;;;5065300;28;20056;-44
2021/06/17 03:37:17;;;;;;;5.22;3.38;;;;;;;;;;5068253;28;20062;-42
2021/06/17 03:39:43;;;;;;;5.15;3.72;;;;;;;;;;5077846;28;20028;-47
2021/06/17 03:42:09;;;;;;;5.15;3.50;;;;;;;;;;5065589;28;20542;-44
2021/06/17 03:44:34;;;;;;;6.22;2.97;;;;;;;;;;5052305;28;20027;-46
2021/06/17 03:46:59;;;;;;;6.07;3.40;;;;;;;;;;5064064;28;20104;-45
2021/06/17 03:49:25;;;;;;;4.57;3.30;;;;;;;;;;5067311;28;20032;-43
2021/06/17 03:51:51;;;;;;;5.82;3.55;;;;;;;;;;5085802;28;20028;-46
2021/06/17 03:54:26;;;;;;;4.25;3.10;;;;;;;;;;5081089;28;20032;-44
2021/06/17 03:56:53;;;;;;;4.18;3.10;;;;;;;;;;5065422;28;20013;-43
2021/06/17 03:59:20;;;;;;;5.82;3.47;;;;;;;;;;5067320;28;20488;-44
2021/06/17 04:01:46;;;;;;;4.82;3.25;;;;;;;;;;5049313;28;20028;-44
2021/06/17 04:04:11;;;;;;;6.63;3.90;;;;;;;;;;5064904;28;20570;-45
2021/06/17 04:06:37;;;;;;;7.85;5.03;;;;;;;;;;5082319;28;20099;-44
2021/06/17 04:09:03;;;;;;;8.85;5.88;;;;;;;;;;5065368;28;20050;-41
2021/06/17 04:11:28;;;;;;;5.50;4.13;;;;;;;;;;5048655;28;20055;-45
2021/06/17 04:13:54;;;;;;;5.57;3.80;;;;;;;;;;5048649;28;20060;-43
2021/06/17 04:16:22;;;;;;;5.70;3.50;;;;;;;;;;5061180;28;20044;-45
2021/06/17 04:18:47;;;;;;;6.97;3.50;;;;;;;;;;5058945;28;20031;-46
2021/06/17 04:21:13;;;;;;;5.30;3.35;;;;;;;;;;5045883;28;20032;-47
2021/06/17 04:23:38;;;;;;;4.85;3.25;;;;;;;;;;5072190;28;20020;-46
2021/06/17 04:26:04;;;;;;;7.38;3.50;;;;;;;;;;5054006;28;20046;-42
2021/06/17 04:28:29;;;;;;;8.18;5.60;;;;;;;;;;5069930;28;20034;-48
2021/06/17 04:30:56;;;;;;;10.05;7.40;;;;;;;;;;5064858;28;20449;-45
2021/06/17 04:33:22;;;;;;;8.70;6.30;;;;;;;;;;5067078;28;20027;-43
2021/06/17 04:35:48;;;;;;;9.35;4.65;;;;;;;;;;5078515;28;20027;-48
2021/06/17 04:38:15;;;;;;;6.63;4.30;;;;;;;;;;5072074;28;20028;-44
2021/06/17 04:40:40;;;;;;;8.90;4.20;;;;;;;;;;5082419;28;20028;-42
2021/06/17 04:43:06;;;;;;;5.97;3.80;;;;;;;;;;5081349;28;20099;-47
2021/06/17 04:45:31;;;;;;;5.13;3.30;;;;;;;;;;5070149;28;20104;-42
2021/06/17 04:47:59;;;;;;;6.47;3.15;;;;;;;;;;5044467;28;20059;-42
2021/06/17 04:50:25;;;;;;;9.40;3.25;;;;;;;;;;5079142;28;20023;-40
2021/06/17 04:52:50;;;;;;;7.03;3.25;;;;;;;;;;5069548;28;20032;-42
2021/06/17 04:55:16;;;;;;;6.32;3.30;;;;;;;;;;5072544;28;20107;-46
2021/06/17 04:57:42;;;;;;;6.22;3.03;;;;;;;;;;5074265;28;20052;-46
2021/06/17 05:00:08;;;;;;;5.78;3.17;;;;;;;;;;5071734;28;20028;-44
2021/06/17 05:02:33;;;;;;;8.02;3.47;;;;;;;;;;5077299;28;20559;-46
2021/06/17 05:04:59;;;;;;;6.43;3.53;;;;;;;;;;5072978;28;20463;-47
2021/06/17 05:12:54;;;;;;;4.10;2.60;;;;;;;;;;5070917;28;20031;-45
2021/06/17 05:15:19;;;;;;;4.97;3.25;;;;;;;;;;5072360;28;20115;-44
2021/06/17 05:17:45;;;;;;;5.65;3.17;;;;;;;;;;5069520;28;20027;-46
2021/06/17 05:20:11;;;;;;;5.50;3.28;;;;;;;;;;5068676;28;20025;-48
2021/06/17 05:22:36;;;;;;;5.13;2.97;;;;;;;;;;5075493;28;20035;-45
2021/06/17 05:25:03;;;;;;;6.60;3.10;;;;;;;;;;5071583;28;20427;-44
2021/06/17 05:27:29;;;;;;;5.07;2.83;;;;;;;;;;5067848;28;20088;-43
2021/06/17 05:29:55;;;;;;;5.68;2.90;;;;;;;;;;5074021;28;20027;-46
2021/06/17 05:32:20;;;;;;;4.10;2.70;;;;;;;;;;5073985;28;20032;-45
2021/06/17 05:36:58;;;;;;;5.05;2.78;;;;;;;;;;5059251;28;20371;-46
2021/06/17 05:39:24;;;;;;;8.85;3.33;;;;;;;;;;5058162;28;20043;-48
2021/06/17 05:41:49;;;;;;;6.75;2.58;;;;;;;;;;5039660;28;20480;-45
2021/06/17 05:44:14;;;;;;;5.63;2.80;;;;;;;;;;5038602;28;20747;-43
2021/06/17 05:46:40;;;;;;;6.55;2.63;;;;;;;;;;5035857;28;20060;-41
2021/06/17 05:49:06;;;;;;;5.88;2.97;;;;;;;;;;5037456;28;20115;-44
2021/06/17 05:51:32;;;;;;;6.00;3.00;;;;;;;;;;5040023;28;20502;-45
2021/06/17 05:53:57;;;;;;;4.80;2.90;;;;;;;;;;5037960;28;20033;-45
2021/06/17 05:56:22;;;;;;;3.72;2.42;;;;;;;;;;5039008;28;20092;-45
2021/06/17 05:58:48;;;;;;;5.03;2.75;;;;;;;;;;5040645;28;20127;-48
2021/06/17 06:01:13;;;;;;;6.35;3.33;;;;;;;;;;5033860;28;20033;-45
2021/06/17 06:03:38;;;;;;;3.97;2.50;;;;;;;;;;5038307;28;20104;-43
2021/06/17 06:06:04;;;;;;;3.95;2.47;;;;;;;;;;5035448;28;20108;-44
2021/06/17 06:08:30;;;;;;;4.88;2.70;;;;;;;;;;5038685;28;20656;-44
2021/06/17 06:10:56;;;;;;;3.88;2.60;;;;;;;;;;5038678;28;20025;-45
2021/06/17 06:13:21;;;;;;;4.63;2.40;;;;;;;;;;5036036;28;20108;-43
2021/06/17 06:15:46;;;;;;;5.45;2.83;;;;;;;;;;5029113;28;20292;-49
2021/06/17 06:18:14;;;;;;;5.47;2.60;;;;;;;;;;5034273;28;20119;-45
2021/06/17 06:20:41;;;;;;;6.53;2.85;;;;;;;;;;5033975;28;20555;-42
2021/06/17 06:23:06;;;;;;;3.90;2.70;;;;;;;;;;5039649;28;20225;-45
2021/06/17 06:25:32;;;;;;;5.43;2.70;;;;;;;;;;5038900;28;20480;-45
2021/06/17 06:27:58;;;;;;;5.38;2.97;;;;;;;;;;5038528;28;20045;-47
2021/06/17 06:30:23;;;;;;;7.00;3.03;;;;;;;;;;5037538;28;20029;-42
2021/06/17 06:32:48;;;;;;;4.60;2.60;;;;;;;;;;5033993;28;20025;-44
2021/06/17 06:35:14;;;;;;;5.10;2.83;;;;;;;;;;5033004;28;20124;-43
2021/06/17 06:37:39;;;;;;;4.10;2.92;;;;;;;;;;5034885;28;20043;-45
2021/06/17 06:40:06;;;;;;;7.70;2.72;;;;;;;;;;5041438;28;20442;-43
2021/06/17 06:42:31;;;;;;;7.05;2.58;;;;;;;;;;5038297;28;20033;-41
2021/06/17 06:44:57;;;;;;;4.80;2.90;;;;;;;;;;5036179;28;20033;-40
2021/06/17 06:47:22;;;;;;;5.35;3.03;;;;;;;;;;5028239;28;20029;-42
2021/06/17 06:49:47;;;;;;;4.43;2.78;;;;;;;;;;5025035;28;20452;-38
2021/06/17 06:52:13;;;;;;;5.00;2.75;;;;;;;;;;5022882;28;20036;-39
2021/06/17 06:54:38;;;;;;;5.03;2.53;;;;;;;;;;5017024;28;20080;-38
2021/06/17 06:57:04;;;;;;;4.72;2.85;;;;;;;;;;5020246;28;20037;-38
2021/06/17 06:59:29;;;;;;;5.05;3.08;;;;;;;;;;5024072;28;20539;-42
2021/06/17 07:01:55;;;;;;;7.32;2.95;;;;;;;;;;5025950;28;20087;-39
2021/06/17 07:04:20;;;;;;;5.05;2.80;;;;;;;;;;5019872;28;20092;-37
2021/06/17 07:06:47;;;;;;;5.47;2.33;;;;;;;;;;5023893;28;20075;-40
2021/06/17 07:09:12;;;;;;;6.00;2.40;;;;;;;;;;5014831;28;20037;-40
2021/06/17 07:11:38;;;;;;;7.78;2.92;;;;;;;;;;5021739;28;20025;-41
2021/06/17 07:14:05;;;;;;;7.65;2.60;;;;;;;;;;5025030;28;20120;-41
2021/06/17 07:16:30;;;;;;;7.50;3.53;;;;;;;;;;5025174;28;20083;-37
2021/06/17 07:18:55;;;;;;;6.05;2.42;;;;;;;;;;5025016;28;20033;-40
2021/06/17 07:21:21;;;;;;;6.03;2.47;;;;;;;;;;5024571;28;20026;-38
2021/06/17 07:23:50;;;;;;;5.95;2.60;;;;;;;;;;5024984;28;20064;-38
2021/06/17 07:26:20;;;;;;;5.13;2.72;;;;;;;;;;5023286;28;20025;-39
2021/06/17 07:28:46;;;;;;;4.65;2.75;;;;;;;;;;5022239;28;20029;-39
2021/06/17 07:31:11;;;;;;;7.32;2.72;;;;;;;;;;5027505;28;20117;-38
2021/06/17 07:33:36;;;;;;;5.88;2.42;;;;;;;;;;5027954;28;20417;-41
2021/06/17 07:36:02;;;;;;;4.43;2.60;;;;;;;;;;5023845;28;20025;-39
2021/06/17 07:38:27;;;;;;;5.53;2.85;;;;;;;;;;5024352;28;20037;-38
2021/06/17 07:40:53;;;;;;;4.90;2.78;;;;;;;;;;5027103;28;20025;-38
2021/06/17 07:43:18;;;;;;;6.95;2.65;;;;;;;;;;5023507;28;20029;-38
2021/06/17 07:45:43;;;;;;;5.22;2.60;;;;;;;;;;5026890;28;20127;-40
2021/06/17 07:48:11;;;;;;;10.43;2.78;;;;;;;;;;5021058;28;20435;-44
2021/06/17 07:50:40;;;;;;;7.93;2.83;;;;;;;;;;5023533;28;20026;-42
2021/06/17 07:53:05;;;;;;;9.07;2.83;;;;;;;;;;5030611;28;20029;-40
2021/06/17 07:55:31;;;;;;;5.57;3.05;;;;;;;;;;5023494;28;20084;-43
2021/06/17 07:57:56;;;;;;;5.95;2.70;;;;;;;;;;5019406;28;20084;-42
2021/06/17 08:00:21;;;;;;;5.75;2.63;;;;;;;;;;5018145;28;20738;-42
2021/06/17 08:02:47;;;;;;;6.40;2.90;;;;;;;;;;5022103;28;20086;-42
2021/06/17 08:05:12;;;;;;;5.05;2.47;;;;;;;;;;5017865;28;20386;-41
2021/06/17 08:07:38;;;;;;;7.50;2.80;;;;;;;;;;5024392;28;20446;-42
2021/06/17 08:10:06;;;;;;;5.75;2.75;;;;;;;;;;5024239;28;20049;-40
2021/06/17 08:12:31;;;;;;;4.40;2.47;;;;;;;;;;5024513;28;20025;-46
2021/06/17 08:14:57;;;;;;;4.85;2.55;;;;;;;;;;5025592;28;20061;-41
2021/06/17 08:17:22;;;;;;;5.70;2.70;;;;;;;;;;5023521;28;20045;-41
2021/06/17 08:19:47;;;;;;;7.30;3.00;;;;;;;;;;5023373;28;20794;-42
2021/06/17 08:22:13;;;;;;;6.60;2.58;;;;;;;;;;5018723;28;20114;-41
2021/06/17 08:24:45;;;;;;;5.10;2.38;;;;;;;;;;5022398;28;20109;-40
2021/06/17 08:27:11;;;;;;;6.82;2.90;;;;;;;;;;5018721;28;20026;-42
2021/06/17 08:29:36;;;;;;;8.43;2.90;;;;;;;;;;5022359;28;20041;-40
2021/06/17 08:32:02;;;;;;;6.68;2.90;;;;;;;;;;5024007;28;20452;-41
2021/06/17 08:34:28;;;;;;;4.30;2.67;;;;;;;;;;5027613;28;20031;-41
2021/06/17 08:36:54;;;;;;;5.72;2.70;;;;;;;;;;5002268;28;20470;-41
2021/06/17 08:39:19;;;;;;;6.85;2.80;;;;;;;;;;5015595;28;20042;-44
2021/06/17 08:41:45;;;;;;;8.15;3.13;;;;;;;;;;5016299;28;20108;-40
2021/06/17 08:44:10;;;;;;;5.85;2.70;;;;;;;;;;5022205;28;20061;-42
2021/06/17 08:46:37;;;;;;;6.45;2.88;;;;;;;;;;5022070;28;20018;-42
2021/06/17 08:49:02;;;;;;;5.45;2.70;;;;;;;;;;5020715;28;20147;-39
2021/06/17 08:51:29;;;;;;;6.07;2.55;;;;;;;;;;5023428;28;20068;-40
2021/06/17 08:53:54;;;;;;;5.80;2.90;;;;;;;;;;5002899;28;20025;-40
2021/06/17 08:56:20;;;;;;;6.50;2.50;;;;;;;;;;5022147;28;20025;-43
2021/06/17 08:58:46;;;;;;;4.53;2.58;;;;;;;;;;5022171;28;20029;-40
2021/06/17 09:01:12;;;;;;;4.32;2.83;;;;;;;;;;5023690;28;20033;-47
2021/06/17 09:03:39;;;;;;;4.15;2.40;;;;;;;;;;5021088;28;20516;-43
2021/06/17 09:06:05;;;;;;;5.18;2.42;;;;;;;;;;5023085;28;20391;-43
2021/06/17 09:08:31;;;;;;;5.70;2.60;;;;;;;;;;5020958;28;20025;-41
2021/06/17 09:10:56;;;;;;;4.38;2.50;;;;;;;;;;5022394;28;20104;-41
2021/06/17 09:13:27;;;;;;;4.28;2.67;;;;;;;;;;5023396;28;20448;-42
2021/06/17 09:15:53;;;;;;;6.45;3.03;;;;;;;;;;5023027;28;20140;-40
2021/06/17 09:18:23;;;;;;;5.22;3.13;;;;;;;;;;5022958;28;20572;-40
2021/06/17 09:20:53;;;;;;;4.72;2.40;;;;;;;;;;5023450;28;20504;-40
2021/06/17 09:23:36;;;;;;;4.57;2.58;;;;;;;;;;5022591;28;20034;-39
2021/06/17 09:26:07;;;;;;;9.15;2.58;;;;;;;;;;5022204;28;20022;-43
2021/06/17 09:28:45;;;;;;;4.75;2.72;;;;;;;;;;5016670;28;20025;-41
2021/06/17 09:31:17;;;;;;;4.53;2.38;;;;;;;;;;5011987;28;20055;-41
2021/06/17 09:33:44;;;;;;;4.13;2.40;;;;;;;;;;5023739;28;20030;-42
2021/06/17 09:36:09;;;;;;;6.80;2.40;;;;;;;;;;5022504;28;20493;-41
2021/06/17 09:38:52;;;;;;;5.88;2.63;;;;;;;;;;5021307;28;20036;-39
2021/06/17 09:41:42;;;;;;;4.50;2.72;;;;;;;;;;5022260;28;20060;-41
2021/06/17 09:44:27;;;;;;;8.15;2.70;;;;;;;;;;5011791;28;20099;-41
2021/06/17 09:47:11;;;;;;;5.60;2.55;;;;;;;;;;5022202;28;20026;-41
2021/06/17 09:49:40;;;;;;;5.13;3.10;;;;;;;;;;5021428;28;20021;-41
2021/06/17 09:52:06;;;;;;;6.15;2.72;;;;;;;;;;5023183;28;20649;-42
2021/06/17 09:54:32;;;;;;;5.50;2.70;;;;;;;;;;5021883;28;20661;-39
2021/06/17 09:57:00;;;;;;;8.43;3.47;;;;;;;;;;5021997;28;20034;-39
2021/06/17 09:59:31;;;;;;;6.05;3.00;;;;;;;;;;5021519;28;20037;-41
2021/06/17 10:01:57;;;;;;;4.78;2.90;;;;;;;;;;5025994;28;20060;-43
2021/06/17 10:04:23;;;;;;;9.05;2.80;;;;;;;;;;5020789;28;20034;-42
2021/06/17 10:06:48;;;;;;;5.88;2.97;;;;;;;;;;5020212;28;20104;-40
2021/06/17 10:09:14;;;;;;;4.43;2.60;;;;;;;;;;5003845;28;20035;-40
2021/06/17 10:11:41;;;;;;;5.47;2.80;;;;;;;;;;5020724;28;20048;-42
2021/06/17 10:14:07;;;;;;;4.90;2.85;;;;;;;;;;5022843;28;20025;-44
2021/06/17 10:16:32;;;;;;;5.22;2.75;;;;;;;;;;5027633;28;20029;-44
2021/06/17 10:18:58;;;;;;;5.72;2.58;;;;;;;;;;5020679;28;20457;-43
2021/06/17 10:21:24;;;;;;;6.05;2.53;;;;;;;;;;5020845;28;20025;-41
2021/06/17 10:23:52;;;;;;;5.57;2.65;;;;;;;;;;5058123;28;20033;-41
2021/06/17 10:26:20;;;;;;;5.38;3.17;;;;;;;;;;5024160;28;20064;-42
2021/06/17 10:28:47;;;;;;;5.50;2.88;;;;;;;;;;5022771;28;20083;-39
2021/06/17 10:31:15;;;;;;;6.97;2.80;;;;;;;;;;5026607;28;20029;-41
2021/06/17 10:33:40;;;;;;;4.40;2.38;;;;;;;;;;5024682;28;20059;-41
2021/06/17 10:36:24;;;;;;;5.75;2.60;;;;;;;;;;5023778;28;20304;-44
2021/06/17 10:39:05;;;;;;;4.68;2.70;;;;;;;;;;5025413;28;20037;-42
2021/06/17 10:41:53;;;;;;;6.10;2.93;;;;;;;;;;5032089;28;20025;-39
2021/06/17 10:45:00;;;;;;;5.45;2.45;;;;;;;;;;5017842;28;20271;-43
2021/06/17 10:47:38;;;;;;;4.00;2.40;;;;;;;;;;5025779;28;20033;-42
2021/06/17 10:50:10;;;;;;;4.53;2.58;;;;;;;;;;5025540;28;20033;-41
2021/06/17 10:52:35;;;;;;;5.57;2.58;;;;;;;;;;5025896;28;20392;-44
2021/06/17 10:55:07;;;;;;;4.65;2.38;;;;;;;;;;5025491;28;20484;-41
2021/06/17 10:57:45;;;;;;;4.57;2.55;;;;;;;;;;5023996;28;20113;-41
2021/06/17 11:00:26;;;;;;;5.65;2.70;;;;;;;;;;5025118;28;20401;-41
2021/06/17 11:02:54;;;;;;;4.47;2.40;;;;;;;;;;5013224;28;20400;-41
2021/06/17 11:05:29;;;;;;;4.13;2.30;;;;;;;;;;5024799;28;20047;-44
2021/06/17 11:08:14;;;;;;;4.35;2.60;;;;;;;;;;5023906;28;20099;-40
2021/06/17 11:10:42;;;;;;;4.10;2.60;;;;;;;;;;5014741;28;20045;-46
2021/06/17 11:13:08;;;;;;;4.95;2.58;;;;;;;;;;5007813;28;20048;-42
2021/06/17 11:15:34;;;;;;;5.07;2.45;;;;;;;;;;5025250;28;20124;-43
2021/06/17 11:17:59;;;;;;;5.45;2.50;;;;;;;;;;5022717;28;20028;-40
2021/06/17 11:20:25;;;;;;;4.68;2.40;;;;;;;;;;5025428;28;20112;-41
2021/06/17 11:22:58;;;;;;;4.72;2.80;;;;;;;;;;5024469;28;20037;-43
2021/06/17 11:25:24;;;;;;;3.45;2.38;;;;;;;;;;5024444;28;20042;-40
2021/06/17 11:27:58;;;;;;;3.92;2.55;;;;;;;;;;5023564;28;20041;-44
2021/06/17 11:30:53;;;;;;;4.55;2.63;;;;;;;;;;5024404;28;20025;-40
2021/06/17 11:33:24;;;;;;;5.32;2.65;;;;;;;;;;5023154;28;20041;-42
2021/06/17 13:29:28;;;;;;;5.63;3.53;;;;;;;;;;4973651;28;20065;-41
2021/06/17 13:31:53;;;;;;;4.82;3.15;;;;;;;;;;4973004;28;20108;-42
2021/06/17 13:34:20;;;;;;;4.97;3.40;;;;;;;;;;4994449;28;20028;-42
2021/06/17 13:36:47;;;;;;;4.13;2.83;;;;;;;;;;4985564;28;20422;-42
2021/06/17 13:39:15;;;;;;;3.88;2.95;;;;;;;;;;4985796;28;20648;-48
